createdAt,value
2018-12-26T00:00:29.765Z,2.21
2018-12-26T00:05:49.794Z,2.19
2018-12-26T00:11:11.197Z,2.22
2018-12-26T00:16:30.670Z,2.18
2018-12-26T00:21:50.143Z,2.21
2018-12-26T00:27:10.405Z,2.20
2018-12-26T00:32:30.305Z,2.22
2018-12-26T00:37:50.572Z,2.25
2018-12-26T00:43:11.301Z,2.19
2018-12-26T00:48:30.773Z,2.14
2018-12-26T00:53:53.023Z,2.19
2018-12-26T00:59:14.531Z,2.20
2018-12-26T01:04:35.955Z,2.18
2018-12-26T01:09:55.289Z,2.19
2018-12-26T01:15:16.237Z,2.21
2018-12-26T01:20:35.284Z,2.24
2018-12-26T01:25:55.809Z,2.22
2018-12-26T01:31:15.685Z,2.24
2018-12-26T01:36:35.111Z,2.25
2018-12-26T01:41:54.679Z,2.29
2018-12-26T01:47:14.497Z,2.29
2018-12-26T01:52:34.228Z,2.29
2018-12-26T01:57:53.656Z,2.28
2018-12-26T02:03:13.193Z,2.25
2018-12-26T02:08:32.279Z,2.29
2018-12-26T02:13:51.415Z,2.26
2018-12-26T02:19:10.404Z,2.28
2018-12-26T02:24:30.194Z,2.28
2018-12-26T02:29:49.911Z,2.29
2018-12-26T02:35:09.728Z,2.33
2018-12-26T02:40:29.428Z,2.34
2018-12-26T02:45:48.437Z,2.29
2018-12-26T02:51:07.638Z,2.27
2018-12-26T02:56:28.398Z,2.23
2018-12-26T03:01:47.470Z,2.19
2018-12-26T03:07:07.134Z,2.16
2018-12-26T03:12:26.903Z,2.20
2018-12-26T03:17:46.135Z,2.14
2018-12-26T03:23:05.351Z,2.15
2018-12-26T03:28:25.131Z,2.05
2018-12-26T03:33:44.747Z,2.04
2018-12-26T03:39:07.146Z,1.98
2018-12-26T03:44:27.759Z,1.89
2018-12-26T03:49:47.558Z,1.88
2018-12-26T03:55:07.552Z,1.86
2018-12-26T04:00:27.705Z,1.73
2018-12-26T04:05:48.014Z,1.81
2018-12-26T04:11:06.922Z,1.79
2018-12-26T04:16:26.304Z,1.75
2018-12-26T04:21:45.902Z,1.75
2018-12-26T04:27:05.351Z,1.62
2018-12-26T04:32:24.610Z,1.57
2018-12-26T04:37:44.120Z,1.54
2018-12-26T04:43:04.269Z,1.49
2018-12-26T04:48:23.998Z,1.56
2018-12-26T04:53:43.329Z,1.56
2018-12-26T04:59:03.577Z,1.59
2018-12-26T05:04:23.573Z,1.59
2018-12-26T05:09:43.163Z,1.53
2018-12-26T05:15:03.096Z,1.45
2018-12-26T05:20:22.645Z,1.32
2018-12-26T05:25:42.585Z,1.14
2018-12-26T05:31:02.833Z,1.04
2018-12-26T05:36:21.597Z,1.00
2018-12-26T05:41:41.192Z,0.96
2018-12-26T05:47:01.752Z,0.98
2018-12-26T05:52:21.710Z,0.99
2018-12-26T05:57:43.305Z,1.05
2018-12-26T06:03:03.000Z,1.10
2018-12-26T06:08:23.674Z,1.11
2018-12-26T06:13:42.919Z,1.05
2018-12-26T06:19:02.434Z,1.08
2018-12-26T06:24:22.135Z,1.09
2018-12-26T06:29:41.398Z,1.24
2018-12-26T06:35:01.908Z,1.39
2018-12-26T06:40:22.903Z,1.41
2018-12-26T06:45:43.509Z,1.55
2018-12-26T06:51:03.669Z,1.60
2018-12-26T06:56:22.972Z,1.70
2018-12-26T07:01:42.496Z,1.76
2018-12-26T07:07:02.457Z,1.84
2018-12-26T07:12:21.447Z,1.88
2018-12-26T07:17:41.731Z,1.93
2018-12-26T07:23:01.524Z,2.00
2018-12-26T07:28:21.032Z,2.05
2018-12-26T07:33:40.708Z,2.15
2018-12-26T07:39:00.346Z,2.22
2018-12-26T07:44:21.603Z,2.35
2018-12-26T07:49:40.842Z,2.40
2018-12-26T07:55:00.268Z,2.44
2018-12-26T08:00:19.810Z,2.56
2018-12-26T08:05:38.780Z,2.60
2018-12-26T08:10:58.204Z,2.75
2018-12-26T08:16:17.357Z,2.75
2018-12-26T08:21:36.846Z,2.81
2018-12-26T08:26:57.018Z,2.82
2018-12-26T08:32:16.546Z,2.87
2018-12-26T08:37:36.031Z,3.05
2018-12-26T08:42:55.502Z,3.17
2018-12-26T08:48:14.732Z,3.33
2018-12-26T08:53:34.294Z,3.36
2018-12-26T08:58:53.689Z,3.29
2018-12-26T09:04:13.942Z,3.38
2018-12-26T09:09:33.884Z,3.43
2018-12-26T09:14:54.180Z,3.41
2018-12-26T09:20:13.656Z,3.65
2018-12-26T09:25:33.911Z,3.87
2018-12-26T09:30:53.755Z,3.63
2018-12-26T09:36:13.248Z,3.66
2018-12-26T09:41:32.694Z,3.78
2018-12-26T09:46:51.833Z,3.92
2018-12-26T09:52:11.554Z,4.13
2018-12-26T09:57:31.475Z,4.31
2018-12-26T10:02:51.285Z,4.38
2018-12-26T10:08:11.526Z,4.63
2018-12-26T10:13:31.774Z,4.86
2018-12-26T10:18:51.775Z,4.82
2018-12-26T10:24:11.449Z,4.94
2018-12-26T10:29:30.514Z,5.10
2018-12-26T10:34:50.546Z,5.29
2018-12-26T10:40:10.757Z,5.35
2018-12-26T10:45:30.346Z,5.27
2018-12-26T10:50:50.352Z,5.19
2018-12-26T10:56:10.144Z,5.09
2018-12-26T11:01:30.009Z,5.09
2018-12-26T11:06:49.348Z,5.47
2018-12-26T11:12:09.486Z,5.79
2018-12-26T11:17:30.138Z,6.33
2018-12-26T11:22:49.710Z,6.44
2018-12-26T11:28:09.874Z,6.30
2018-12-26T11:33:29.428Z,6.43
2018-12-26T11:38:49.046Z,6.48
2018-12-26T11:44:08.737Z,6.05
2018-12-26T11:49:28.440Z,5.94
2018-12-26T11:54:48.575Z,6.60
2018-12-26T12:00:07.687Z,6.58
2018-12-26T12:05:27.563Z,7.07
2018-12-26T12:10:47.584Z,7.11
2018-12-26T12:16:07.550Z,7.92
2018-12-26T12:21:26.621Z,8.90
2018-12-26T12:26:47.022Z,9.27
2018-12-26T12:32:06.516Z,8.37
2018-12-26T12:37:26.932Z,8.35
2018-12-26T12:42:47.163Z,8.15
2018-12-26T12:48:07.069Z,9.57
2018-12-26T12:53:26.732Z,10.33
2018-12-26T12:58:46.059Z,9.97
2018-12-26T13:04:05.986Z,11.34
2018-12-26T13:09:26.266Z,11.99
2018-12-26T13:14:46.253Z,11.18
2018-12-26T13:20:08.416Z,11.37
2018-12-26T13:25:27.431Z,11.00
2018-12-26T13:30:47.636Z,9.41
2018-12-26T13:36:06.956Z,8.76
2018-12-26T13:41:26.571Z,7.89
2018-12-26T13:46:46.876Z,7.42
2018-12-26T13:52:06.794Z,6.60
2018-12-26T13:57:27.000Z,6.17
2018-12-26T14:02:46.490Z,5.80
2018-12-26T14:08:07.101Z,5.60
2018-12-26T14:13:27.799Z,5.03
2018-12-26T14:18:48.378Z,4.79
2018-12-26T14:24:07.594Z,4.46
2018-12-26T14:29:27.320Z,4.13
2018-12-26T14:34:47.193Z,4.06
2018-12-26T14:40:06.268Z,3.99
2018-12-26T14:45:25.953Z,3.83
2018-12-26T14:50:45.294Z,3.72
2018-12-26T14:56:04.827Z,3.54
2018-12-26T15:01:24.126Z,3.28
2018-12-26T15:06:43.809Z,3.04
2018-12-26T15:12:03.061Z,2.87
2018-12-26T15:17:23.459Z,2.76
2018-12-26T15:22:43.017Z,2.61
2018-12-26T15:28:03.600Z,2.35
2018-12-26T15:33:23.082Z,2.33
2018-12-26T15:38:43.548Z,2.21
2018-12-26T15:44:02.551Z,2.17
2018-12-26T15:49:23.306Z,2.03
2018-12-26T15:54:42.897Z,2.03
2018-12-26T16:00:02.714Z,2.02
2018-12-26T16:05:22.396Z,1.89
2018-12-26T16:10:42.480Z,1.86
2018-12-26T16:16:02.021Z,1.83
2018-12-26T16:21:22.428Z,1.79
2018-12-26T16:26:42.056Z,1.85
2018-12-26T16:32:01.425Z,1.83
2018-12-26T16:37:21.567Z,1.70
2018-12-26T16:42:42.684Z,1.68
2018-12-26T16:48:01.980Z,1.74
2018-12-26T16:53:21.471Z,1.68
2018-12-26T16:58:46.359Z,1.81
2018-12-26T17:04:06.639Z,1.84
2018-12-26T17:09:25.875Z,1.81
2018-12-26T17:14:45.841Z,1.66
2018-12-26T17:20:06.076Z,1.76
2018-12-26T17:25:25.959Z,1.78
2018-12-26T17:30:45.695Z,1.81
2018-12-26T17:36:05.430Z,1.87
2018-12-26T17:41:34.281Z,2.17
2018-12-26T17:47:01.648Z,2.33
2018-12-26T17:52:22.551Z,2.45
2018-12-26T17:57:46.314Z,2.51
2018-12-26T18:03:06.224Z,2.54
2018-12-26T18:08:26.168Z,2.64
2018-12-26T18:13:46.001Z,2.68
2018-12-26T18:19:07.024Z,2.63
2018-12-26T18:24:26.686Z,2.66
2018-12-26T18:29:51.906Z,2.72
2018-12-26T18:35:11.209Z,2.76
2018-12-26T18:40:31.123Z,2.82
2018-12-26T18:45:54.450Z,2.82
2018-12-26T18:51:13.888Z,2.83
2018-12-26T18:56:34.668Z,2.83
2018-12-26T19:01:53.978Z,2.92
2018-12-26T19:07:13.786Z,2.94
2018-12-26T19:12:33.903Z,2.93
2018-12-26T19:18:14.230Z,2.98
2018-12-26T19:23:34.177Z,3.11
2018-12-26T19:28:54.925Z,3.22
2018-12-26T19:34:16.799Z,3.18
2018-12-26T19:39:36.646Z,3.22
2018-12-26T19:44:56.777Z,3.22
2018-12-26T19:50:17.794Z,3.22
2018-12-26T19:55:39.278Z,3.23
2018-12-26T20:01:00.198Z,3.30
2018-12-26T20:06:22.531Z,3.32
2018-12-26T20:11:42.833Z,3.33
2018-12-26T20:17:02.672Z,3.32
2018-12-26T20:22:23.134Z,3.29
2018-12-26T20:27:43.945Z,3.37
2018-12-26T20:33:03.926Z,3.34
2018-12-26T20:38:25.510Z,3.43
2018-12-26T20:43:45.649Z,3.54
2018-12-26T20:49:06.053Z,3.59
2018-12-26T20:54:25.967Z,3.67
2018-12-26T20:59:45.893Z,3.73
2018-12-26T21:05:05.826Z,3.61
2018-12-26T21:10:25.567Z,3.62
2018-12-26T21:15:45.455Z,3.49
2018-12-26T21:21:05.186Z,3.62
2018-12-26T21:26:27.163Z,3.70
2018-12-26T21:31:47.438Z,3.74
2018-12-26T21:37:07.550Z,3.81
2018-12-26T21:42:30.733Z,3.89
2018-12-26T21:47:51.333Z,3.89
2018-12-26T21:53:11.376Z,4.00
2018-12-26T21:58:32.592Z,4.03
2018-12-26T22:03:53.738Z,4.07
2018-12-26T22:09:13.272Z,4.04
2018-12-26T22:14:32.981Z,3.98
2018-12-26T22:19:57.237Z,3.86
2018-12-26T22:25:17.174Z,3.63
2018-12-26T22:30:37.391Z,3.55
2018-12-26T22:35:57.516Z,3.51
2018-12-26T22:41:16.686Z,3.56
2018-12-26T22:46:36.362Z,3.61
2018-12-26T22:51:55.395Z,3.65
2018-12-26T22:57:15.213Z,3.76
2018-12-26T23:02:38.811Z,3.85
2018-12-26T23:07:53.776Z,3.91
2018-12-26T23:13:14.597Z,3.90
2018-12-26T23:18:33.548Z,3.87
2018-12-26T23:23:53.848Z,3.78
2018-12-26T23:29:13.774Z,3.76
2018-12-26T23:34:33.332Z,3.79
2018-12-26T23:39:52.507Z,3.72
2018-12-26T23:45:11.789Z,3.66
2018-12-26T23:50:32.190Z,3.69
2018-12-26T23:55:51.124Z,3.70
